createdAt,value
2022-10-11T00:02:05.391Z,102103.25
2022-10-11T00:04:32.031Z,102110.22
2022-10-11T00:06:58.763Z,102106.75
2022-10-11T00:09:25.430Z,102113.06
2022-10-11T00:11:55.621Z,102109.63
2022-10-11T00:14:23.956Z,102115.50
2022-10-11T00:16:50.708Z,102114.47
2022-10-11T00:19:17.607Z,102106.25
2022-10-11T00:21:44.666Z,102105.66
2022-10-11T00:24:12.188Z,102110.28
2022-10-11T00:26:41.168Z,102110.50
2022-10-11T00:29:12.541Z,102109.53
2022-10-11T00:31:39.878Z,102110.75
2022-10-11T00:34:06.820Z,102112.66
2022-10-11T00:36:33.560Z,102121.38
2022-10-11T00:39:00.252Z,102124.44
2022-10-11T00:41:26.850Z,102121.19
2022-10-11T00:44:17.272Z,102127.81
2022-10-11T00:46:53.632Z,102134.59
2022-10-11T00:49:49.075Z,102132.63
2022-10-11T00:52:31.576Z,102132.34
2022-10-11T00:55:02.030Z,102128.50
2022-10-11T00:57:32.146Z,102128.50
2022-10-11T00:59:58.932Z,102135.00
2022-10-11T01:02:26.332Z,102140.66
2022-10-11T01:05:11.451Z,102137.50
2022-10-11T01:07:40.587Z,102133.72
2022-10-11T01:10:07.581Z,102131.25
2022-10-11T01:12:34.753Z,102138.38
2022-10-11T01:15:22.041Z,102142.16
2022-10-11T01:18:17.898Z,102141.41
2022-10-11T01:20:53.884Z,102139.06
2022-10-11T01:23:44.863Z,102136.63
2022-10-11T01:27:13.100Z,102132.09
2022-10-11T01:30:01.200Z,102129.22
2022-10-11T01:32:34.023Z,102128.94
2022-10-11T01:35:10.995Z,102135.38
2022-10-11T01:37:48.163Z,102137.97
2022-10-11T01:40:25.132Z,102132.97
2022-10-11T01:42:52.598Z,102143.50
2022-10-11T01:45:19.989Z,102143.56
2022-10-11T01:47:46.941Z,102149.59
2022-10-11T01:50:36.130Z,102148.09
2022-10-11T01:53:10.430Z,102146.50
2022-10-11T01:55:51.144Z,102144.16
2022-10-11T01:58:36.537Z,102145.78
2022-10-11T02:01:03.177Z,102143.22
2022-10-11T02:03:46.941Z,102143.22
2022-10-11T02:06:37.248Z,102147.81
2022-10-11T02:09:15.351Z,102144.38
2022-10-11T02:11:42.157Z,102143.50
2022-10-11T02:14:13.032Z,102149.97
2022-10-11T02:16:43.862Z,102150.53
2022-10-11T02:19:13.470Z,102149.44
2022-10-11T02:21:42.057Z,102149.06
2022-10-11T02:24:31.437Z,102156.34
2022-10-11T02:26:59.984Z,102146.94
2022-10-11T02:29:28.317Z,102143.97
2022-10-11T02:31:55.790Z,102149.06
2022-10-11T02:34:25.280Z,102156.34
2022-10-11T02:37:07.252Z,102158.44
2022-10-11T02:39:42.606Z,102155.84
2022-10-11T02:42:19.947Z,102160.88
2022-10-11T02:45:06.961Z,102159.41
2022-10-11T02:47:33.904Z,102169.91
2022-10-11T02:50:00.837Z,102156.19
2022-10-11T02:52:27.898Z,102156.78
2022-10-11T02:54:54.688Z,102159.28
2022-10-11T02:57:21.378Z,102155.50
2022-10-11T02:59:48.087Z,102158.78
2022-10-11T03:02:14.862Z,102149.31
2022-10-11T03:04:41.567Z,102152.50
2022-10-11T03:07:08.408Z,102159.06
2022-10-11T03:09:35.083Z,102159.63
2022-10-11T03:12:01.783Z,102160.25
2022-10-11T03:14:28.517Z,102168.91
2022-10-11T03:16:55.313Z,102164.28
2022-10-11T03:19:22.519Z,102166.22
2022-10-11T03:21:49.168Z,102167.06
2022-10-11T03:24:15.913Z,102163.59
2022-10-11T03:26:42.616Z,102165.38
2022-10-11T03:29:09.328Z,102164.56
2022-10-11T03:31:36.040Z,102167.88
2022-10-11T03:34:02.885Z,102170.47
2022-10-11T03:36:29.608Z,102188.56
2022-10-11T03:38:56.510Z,102174.22
2022-10-11T03:41:23.294Z,102180.94
2022-10-11T03:43:49.893Z,102185.69
2022-10-11T03:46:16.594Z,102183.56
2022-10-11T03:48:43.269Z,102181.97
2022-10-11T03:51:10.195Z,102190.59
2022-10-11T03:53:36.887Z,102186.00
2022-10-11T03:56:08.316Z,102179.84
2022-10-11T03:58:35.440Z,102186.09
2022-10-11T04:01:02.245Z,102187.69
2022-10-11T04:03:28.979Z,102186.34
2022-10-11T04:05:55.604Z,102192.56
2022-10-11T04:08:22.272Z,102193.91
2022-10-11T04:10:49.078Z,102197.41
2022-10-11T04:13:16.367Z,102200.38
2022-10-11T04:15:43.723Z,102192.28
2022-10-11T04:24:00.770Z,102201.75
2022-10-11T04:26:27.710Z,102206.31
2022-10-11T04:28:54.668Z,102203.84
2022-10-11T04:31:21.368Z,102200.91
2022-10-11T04:33:48.373Z,102207.59
2022-10-11T04:36:15.113Z,102203.28
2022-10-11T04:38:42.145Z,102216.47
2022-10-11T04:41:10.745Z,102202.72
2022-10-11T04:43:39.128Z,102213.06
2022-10-11T04:46:06.619Z,102214.72
2022-10-11T04:48:33.742Z,102210.66
2022-10-11T04:51:00.654Z,102213.91
2022-10-11T04:53:27.476Z,102218.72
2022-10-11T04:56:05.937Z,102224.69
2022-10-11T04:58:34.497Z,102219.47
2022-10-11T05:01:01.286Z,102214.09
2022-10-11T05:03:28.538Z,102209.25
2022-10-11T05:05:55.144Z,102206.03
2022-10-11T05:08:25.202Z,102230.09
2022-10-11T05:10:57.205Z,102220.34
2022-10-11T05:13:24.766Z,102222.00
2022-10-11T05:15:51.869Z,102230.66
2022-10-11T05:18:19.019Z,102233.06
2022-10-11T05:20:46.139Z,102235.75
2022-10-11T05:23:13.420Z,102229.53
2022-10-11T05:25:40.372Z,102240.34
2022-10-11T05:28:07.302Z,102244.16
2022-10-11T05:30:34.062Z,102240.91
2022-10-11T05:33:00.921Z,102242.00
2022-10-11T05:35:27.612Z,102245.25
2022-10-11T05:37:54.482Z,102246.06
2022-10-11T05:40:21.060Z,102250.94
2022-10-11T05:42:47.816Z,102252.25
2022-10-11T05:45:14.423Z,102245.25
2022-10-11T05:47:41.281Z,102247.19
2022-10-11T05:50:08.391Z,102243.88
2022-10-11T05:52:35.063Z,102254.19
2022-10-11T05:55:03.266Z,102259.59
2022-10-11T05:57:29.991Z,102261.47
2022-10-11T05:59:56.773Z,102265.53
2022-10-11T06:02:23.725Z,102267.44
2022-10-11T06:04:50.551Z,102262.59
2022-10-11T06:07:17.738Z,102268.81
2022-10-11T06:09:45.223Z,102255.31
2022-10-11T06:12:12.041Z,102265.31
2022-10-11T06:14:38.833Z,102263.66
2022-10-11T06:17:05.703Z,102278.81
2022-10-11T06:19:32.317Z,102275.81
2022-10-11T06:21:59.070Z,102268.81
2022-10-11T06:24:25.732Z,102272.88
2022-10-11T06:26:52.448Z,102279.31
2022-10-11T06:29:19.149Z,102281.72
2022-10-11T06:31:46.162Z,102279.63
2022-10-11T06:34:12.860Z,102284.44
2022-10-11T06:36:40.309Z,102288.25
2022-10-11T06:39:07.643Z,102294.47
2022-10-11T06:41:34.512Z,102292.78
2022-10-11T06:44:01.246Z,102286.38
2022-10-11T06:46:28.596Z,102287.16
2022-10-11T06:48:56.454Z,102289.31
2022-10-11T06:51:23.718Z,102298.75
2022-10-11T06:53:55.443Z,102295.47
2022-10-11T06:56:22.867Z,102299.84
2022-10-11T06:58:51.225Z,102301.16
2022-10-11T07:01:20.145Z,102301.22
2022-10-11T07:03:48.302Z,102313.41
2022-10-11T07:06:19.968Z,102315.88
2022-10-11T07:08:47.420Z,102324.19
2022-10-11T07:11:19.549Z,102321.47
2022-10-11T07:13:54.756Z,102328.19
2022-10-11T07:16:21.980Z,102327.97
2022-10-11T07:18:54.787Z,102329.25
2022-10-11T07:21:24.183Z,102335.56
2022-10-11T07:23:51.336Z,102339.25
2022-10-11T07:26:19.380Z,102332.00
2022-10-11T07:28:46.807Z,102330.22
2022-10-11T07:31:19.887Z,102336.91
2022-10-11T07:33:47.181Z,102323.13
2022-10-11T07:36:15.548Z,102336.19
2022-10-11T07:38:43.871Z,102335.00
2022-10-11T07:41:11.110Z,102328.25
2022-10-11T07:43:39.675Z,102338.53
2022-10-11T07:46:07.067Z,102347.13
2022-10-11T07:48:35.289Z,102337.47
2022-10-11T07:51:09.949Z,102338.00
2022-10-11T07:53:44.555Z,102350.44
2022-10-11T07:56:13.392Z,102334.28
2022-10-11T07:58:41.204Z,102342.47
2022-10-11T08:01:09.261Z,102338.69
2022-10-11T08:03:37.026Z,102356.28
2022-10-11T08:06:06.918Z,102348.91
2022-10-11T08:08:33.890Z,102342.28
2022-10-11T08:11:00.853Z,102343.59
2022-10-11T08:13:27.912Z,102350.78
2022-10-11T08:15:54.755Z,102347.59
2022-10-11T08:18:21.707Z,102349.19
2022-10-11T08:20:48.825Z,102352.06
2022-10-11T08:23:21.666Z,102361.72
2022-10-11T08:25:48.891Z,102364.91
2022-10-11T08:28:17.974Z,102358.69
2022-10-11T08:30:49.614Z,102361.13
2022-10-11T08:33:17.887Z,102357.22
2022-10-11T08:35:44.775Z,102366.31
2022-10-11T08:38:11.807Z,102369.25
2022-10-11T08:40:38.486Z,102368.69
2022-10-11T08:43:08.603Z,102357.66
2022-10-11T08:45:43.617Z,102373.09
2022-10-11T08:48:39.092Z,102363.16
2022-10-11T08:51:14.072Z,102366.47
2022-10-11T08:53:53.877Z,102372.50
2022-10-11T08:56:21.282Z,102367.56
2022-10-11T08:59:13.706Z,102361.00
2022-10-11T09:01:47.668Z,102366.53
2022-10-11T09:04:15.802Z,102374.94
2022-10-11T09:07:05.178Z,102372.38
2022-10-11T09:10:03.148Z,102369.09
2022-10-11T09:12:40.488Z,102377.31
2022-10-11T09:15:35.387Z,102379.88
2022-10-11T09:18:28.220Z,102378.66
2022-10-11T09:21:08.304Z,102374.09
2022-10-11T09:23:56.665Z,102369.59
2022-10-11T09:26:31.181Z,102369.28
2022-10-11T09:29:12.997Z,102370.19
2022-10-11T09:31:41.306Z,102368.94
2022-10-11T09:34:14.353Z,102368.91
2022-10-11T09:37:13.850Z,102373.91
2022-10-11T09:39:48.498Z,102369.34
2022-10-11T09:42:15.449Z,102369.28
2022-10-11T09:44:50.812Z,102363.59
2022-10-11T09:47:21.103Z,102366.09
2022-10-11T09:49:53.205Z,102363.09
2022-10-11T09:52:22.036Z,102365.75
2022-10-11T09:54:51.709Z,102368.09
2022-10-11T09:57:36.724Z,102367.50
2022-10-11T10:00:22.778Z,102365.94
2022-10-11T10:02:52.155Z,102362.69
2022-10-11T10:05:32.775Z,102370.59
2022-10-11T10:08:10.495Z,102369.41
2022-10-11T10:10:55.776Z,102370.47
2022-10-11T10:13:46.001Z,102365.94
2022-10-11T10:16:27.197Z,102360.59
2022-10-11T10:18:58.351Z,102363.34
2022-10-11T10:21:30.496Z,102348.97
2022-10-11T10:24:00.208Z,102347.34
2022-10-11T10:26:27.000Z,102349.03
2022-10-11T10:28:59.885Z,102356.31
2022-10-11T10:32:12.979Z,102345.06
2022-10-11T10:34:37.978Z,102341.78
2022-10-11T10:37:28.245Z,102343.06
2022-10-11T10:40:09.654Z,102355.22
2022-10-11T10:42:37.083Z,102355.00
2022-10-11T10:45:09.684Z,102350.72
2022-10-11T10:47:59.684Z,102342.75
2022-10-11T10:50:40.354Z,102347.75
2022-10-11T10:53:25.794Z,102340.84
2022-10-11T10:56:13.837Z,102340.38
2022-10-11T10:58:50.985Z,102340.72
2022-10-11T11:01:23.707Z,102337.56
2022-10-11T11:04:31.914Z,102346.75
2022-10-11T11:07:33.301Z,102351.56
2022-10-11T11:10:17.444Z,102346.91
2022-10-11T11:13:12.081Z,102340.56
2022-10-11T11:15:57.381Z,102347.69
2022-10-11T11:18:53.306Z,102343.03
2022-10-11T11:21:30.328Z,102339.59
2022-10-11T11:24:18.871Z,102335.47
2022-10-11T11:26:56.191Z,102337.06
2022-10-11T11:29:55.340Z,102335.47
2022-10-11T11:32:28.750Z,102340.34
2022-10-11T11:35:25.049Z,102324.53
2022-10-11T11:38:00.162Z,102327.22
2022-10-11T11:40:42.442Z,102321.53
2022-10-11T11:43:21.295Z,102313.19
2022-10-11T11:45:52.607Z,102317.19
2022-10-11T11:48:24.572Z,102307.47
2022-10-11T11:51:11.770Z,102308.78
2022-10-11T11:53:53.603Z,102305.34
2022-10-11T11:56:44.851Z,102299.91
2022-10-11T11:59:39.395Z,102303.59
2022-10-11T12:02:29.669Z,102305.38
2022-10-11T12:04:56.824Z,102298.91
2022-10-11T12:07:25.549Z,102287.66
2022-10-11T12:09:55.069Z,102291.69
2022-10-11T12:12:35.474Z,102290.19
2022-10-11T12:15:10.421Z,102288.69
2022-10-11T12:17:58.596Z,102286.91
2022-10-11T12:20:26.537Z,102284.53
2022-10-11T12:23:01.949Z,102281.16
2022-10-11T12:25:28.784Z,102280.06
2022-10-11T12:28:00.765Z,102273.75
2022-10-11T12:30:43.166Z,102275.47
2022-10-11T12:33:48.599Z,102271.34
2022-10-11T12:36:29.861Z,102268.75
2022-10-11T12:39:18.349Z,102265.84
2022-10-11T12:41:50.976Z,102262.41
2022-10-11T12:44:23.879Z,102258.16
2022-10-11T12:46:50.482Z,102253.47
2022-10-11T12:49:38.133Z,102262.72
2022-10-11T12:52:36.048Z,102262.81
2022-10-11T12:55:24.561Z,102255.94
2022-10-11T12:58:10.044Z,102257.50
2022-10-11T13:00:39.743Z,102262.81
2022-10-11T13:03:32.479Z,102253.06
2022-10-11T13:06:01.861Z,102254.41
2022-10-11T13:08:49.490Z,102259.31
2022-10-11T13:11:23.049Z,102259.31
2022-10-11T13:14:13.339Z,102262.03
2022-10-11T13:17:07.981Z,102244.69
2022-10-11T13:19:36.608Z,102255.44
2022-10-11T13:22:13.385Z,102257.88
2022-10-11T13:24:40.609Z,102251.56
2022-10-11T13:27:07.875Z,102249.34
2022-10-11T13:29:43.935Z,102246.63
2022-10-11T13:32:21.997Z,102244.19
2022-10-11T13:34:53.108Z,102246.50
2022-10-11T13:37:22.511Z,102245.00
2022-10-11T13:39:51.541Z,102236.31
2022-10-11T13:42:18.938Z,102247.72
2022-10-11T13:44:46.378Z,102243.56
2022-10-11T13:47:14.809Z,102243.06
2022-10-11T13:49:46.219Z,102235.34
2022-10-11T13:52:19.358Z,102230.38
2022-10-11T13:55:22.993Z,102235.66
2022-10-11T13:57:52.258Z,102235.53
2022-10-11T14:00:33.890Z,102243.03
2022-10-11T14:03:08.150Z,102239.53
2022-10-11T14:05:38.124Z,102238.63
2022-10-11T14:08:26.912Z,102234.19
2022-10-11T14:10:57.255Z,102235.84
2022-10-11T14:13:43.311Z,102233.78
2022-10-11T14:16:28.824Z,102228.44
2022-10-11T14:18:58.585Z,102219.25
2022-10-11T14:21:33.403Z,102226.78
2022-10-11T14:24:01.811Z,102234.34
2022-10-11T14:26:33.441Z,102226.34
2022-10-11T14:29:02.698Z,102216.19
2022-10-11T14:31:30.413Z,102221.53
2022-10-11T14:33:57.609Z,102216.84
2022-10-11T14:36:24.942Z,102209.28
2022-10-11T14:38:52.219Z,102208.31
2022-10-11T14:41:19.128Z,102210.25
2022-10-11T14:43:45.803Z,102209.59
2022-10-11T14:46:24.540Z,102209.13
2022-10-11T14:48:55.448Z,102209.13
2022-10-11T14:51:25.682Z,102205.00
2022-10-11T14:53:52.569Z,102205.56
2022-10-11T14:56:21.725Z,102196.88
2022-10-11T14:58:49.006Z,102194.16
2022-10-11T15:01:16.830Z,102199.78
2022-10-11T15:03:43.986Z,102189.78
2022-10-11T15:06:24.344Z,102189.38
2022-10-11T15:08:51.249Z,102184.16
2022-10-11T15:11:20.399Z,102183.03
2022-10-11T15:13:47.202Z,102170.81
2022-10-11T15:16:15.559Z,102171.06
2022-10-11T15:18:42.688Z,102171.44
2022-10-11T15:21:13.974Z,102176.47
2022-10-11T15:23:40.731Z,102166.13
2022-10-11T15:26:07.977Z,102167.38
2022-10-11T15:28:35.041Z,102163.75
2022-10-11T15:31:02.068Z,102168.41
2022-10-11T15:33:29.017Z,102160.97
2022-10-11T15:35:55.843Z,102159.81
2022-10-11T15:38:24.985Z,102163.25
2022-10-11T15:40:52.652Z,102161.47
2022-10-11T15:43:24.203Z,102155.22
2022-10-11T15:45:52.045Z,102159.72
2022-10-11T15:48:19.811Z,102163.25
2022-10-11T15:50:46.587Z,102164.06
2022-10-11T15:53:16.864Z,102156.00
2022-10-11T15:55:46.160Z,102158.22
2022-10-11T15:58:14.764Z,102154.22
2022-10-11T16:00:42.958Z,102159.22
2022-10-11T16:03:11.874Z,102158.25
2022-10-11T16:05:39.667Z,102156.81
2022-10-11T16:08:06.492Z,102155.34
2022-10-11T16:10:33.520Z,102159.38
2022-10-11T16:13:00.332Z,102154.88
2022-10-11T16:15:27.300Z,102153.78
2022-10-11T16:17:54.122Z,102148.91
2022-10-11T16:20:25.715Z,102145.69
2022-10-11T16:22:53.986Z,102156.97
2022-10-11T16:25:24.452Z,102160.84
2022-10-11T16:27:51.815Z,102156.63
2022-10-11T16:30:19.681Z,102149.09
2022-10-11T16:32:46.704Z,102162.28
2022-10-11T16:35:14.643Z,102162.78
2022-10-11T16:37:41.433Z,102157.31
2022-10-11T16:40:09.396Z,102160.38
2022-10-11T16:42:38.458Z,102160.34
2022-10-11T16:45:06.157Z,102157.59
2022-10-11T16:47:32.954Z,102157.78
2022-10-11T16:50:00.140Z,102157.28
2022-10-11T16:52:26.970Z,102161.63
2022-10-11T16:54:53.911Z,102159.53
2022-10-11T16:57:20.707Z,102155.78
2022-10-11T16:59:47.690Z,102162.06
2022-10-11T17:02:18.096Z,102162.38
2022-10-11T17:04:45.465Z,102167.34
2022-10-11T17:07:13.441Z,102166.53
2022-10-11T17:09:43.989Z,102167.31
2022-10-11T17:12:13.102Z,102169.88
2022-10-11T17:14:40.650Z,102163.44
2022-10-11T17:17:08.653Z,102163.59
2022-10-11T17:19:45.089Z,102169.88
2022-10-11T17:22:14.903Z,102168.56
2022-10-11T17:24:42.440Z,102173.19
2022-10-11T17:27:09.338Z,102170.47
2022-10-11T17:29:36.251Z,102177.41
2022-10-11T17:32:03.329Z,102181.69
2022-10-11T17:34:30.187Z,102168.13
2022-10-11T17:36:59.723Z,102173.13
2022-10-11T17:39:26.565Z,102177.16
2022-10-11T17:41:53.820Z,102175.31
2022-10-11T17:44:21.721Z,102172.09
2022-10-11T17:46:49.105Z,102172.38
2022-10-11T17:49:16.015Z,102179.50
2022-10-11T17:51:43.071Z,102170.50
2022-10-11T17:54:13.331Z,102177.25
2022-10-11T17:56:41.344Z,102179.66
2022-10-11T17:59:09.612Z,102181.81
2022-10-11T18:01:36.472Z,102179.50
2022-10-11T18:04:05.388Z,102176.25
2022-10-11T18:06:34.728Z,102173.84
2022-10-11T18:09:02.855Z,102168.44
2022-10-11T18:11:30.453Z,102177.94
2022-10-11T18:13:57.436Z,102176.56
2022-10-11T18:16:29.206Z,102177.69
2022-10-11T18:18:57.594Z,102172.06
2022-10-11T18:21:29.878Z,102172.75
2022-10-11T18:24:04.707Z,102174.97
2022-10-11T18:26:31.916Z,102176.59
2022-10-11T18:29:01.752Z,102172.00
2022-10-11T18:31:37.141Z,102169.81
2022-10-11T18:34:57.912Z,102172.44
2022-10-11T18:37:33.098Z,102173.31
2022-10-11T18:40:28.665Z,102171.09
2022-10-11T18:43:03.015Z,102162.75
2022-10-11T18:45:32.268Z,102159.91
2022-10-11T18:48:08.808Z,102161.97
2022-10-11T18:50:44.021Z,102162.53
2022-10-11T18:53:39.188Z,102147.81
2022-10-11T18:56:12.018Z,102150.47
2022-10-11T18:58:46.075Z,102151.66
2022-10-11T19:01:16.608Z,102148.72
2022-10-11T19:03:44.727Z,102142.47
2022-10-11T19:06:17.961Z,102148.00
2022-10-11T19:08:49.952Z,102158.03
2022-10-11T19:11:17.959Z,102154.19
2022-10-11T19:13:44.966Z,102149.38
2022-10-11T19:16:15.423Z,102152.41
2022-10-11T19:18:44.641Z,102154.19
2022-10-11T19:21:13.121Z,102149.25
2022-10-11T19:23:45.231Z,102153.91
2022-10-11T19:26:17.935Z,102156.22
2022-10-11T19:28:45.919Z,102155.94
2022-10-11T19:31:17.578Z,102158.94
2022-10-11T19:33:45.454Z,102154.91
2022-10-11T19:36:14.209Z,102169.25
2022-10-11T19:38:45.145Z,102162.69
2022-10-11T19:41:12.854Z,102161.69
2022-10-11T19:43:39.622Z,102157.44
2022-10-11T19:46:08.440Z,102165.63
2022-10-11T19:48:39.293Z,102156.31
2022-10-11T19:51:14.452Z,102157.16
2022-10-11T19:53:41.687Z,102160.09
2022-10-11T19:56:17.107Z,102160.19
2022-10-11T19:58:44.193Z,102149.16
2022-10-11T20:01:12.157Z,102160.75
2022-10-11T20:03:39.279Z,102164.31
2022-10-11T20:06:07.845Z,102149.88
2022-10-11T20:08:35.698Z,102156.84
2022-10-11T20:11:05.364Z,102150.66
2022-10-11T20:13:35.049Z,102155.47
2022-10-11T20:16:08.223Z,102159.50
2022-10-11T20:18:35.518Z,102153.88
2022-10-11T20:21:07.177Z,102152.56
2022-10-11T20:23:37.104Z,102148.50
2022-10-11T20:26:28.435Z,102154.38
2022-10-11T20:28:59.517Z,102156.78
2022-10-11T20:31:33.363Z,102142.34
2022-10-11T20:34:04.010Z,102157.31
2022-10-11T20:36:40.499Z,102151.63
2022-10-11T20:39:08.224Z,102152.94
2022-10-11T20:41:40.166Z,102162.22
2022-10-11T20:44:07.883Z,102162.22
2022-10-11T20:46:37.309Z,102166.88
2022-10-11T20:49:07.214Z,102159.53
2022-10-11T20:51:36.003Z,102166.63
2022-10-11T20:54:04.765Z,102166.38
2022-10-11T20:56:36.349Z,102171.09
2022-10-11T20:59:08.444Z,102162.88
2022-10-11T21:01:40.631Z,102162.38
2022-10-11T21:04:17.597Z,102168.63
2022-10-11T21:06:44.327Z,102159.81
2022-10-11T21:09:16.594Z,102160.31
2022-10-11T21:11:44.460Z,102158.19
2022-10-11T21:14:12.413Z,102172.19
2022-10-11T21:16:39.321Z,102167.06
2022-10-11T21:19:07.030Z,102167.38
2022-10-11T21:21:35.558Z,102154.59
2022-10-11T21:24:03.205Z,102156.34
2022-10-11T21:26:31.671Z,102155.34
2022-10-11T21:29:03.771Z,102154.03
2022-10-11T21:31:34.084Z,102154.72
2022-10-11T21:34:04.640Z,102147.16
2022-10-11T21:36:37.745Z,102150.50
2022-10-11T21:39:06.201Z,102154.94
2022-10-11T21:41:36.900Z,102144.41
2022-10-11T21:44:04.593Z,102148.69
2022-10-11T21:49:22.232Z,102155.13
2022-10-11T21:51:49.163Z,102147.13
2022-10-11T21:54:17.049Z,102147.97
2022-10-11T21:56:47.202Z,102139.81
2022-10-11T21:59:14.766Z,102135.94
2022-10-11T22:01:42.967Z,102145.00
2022-10-11T22:04:10.639Z,102137.22
2022-10-11T22:06:38.137Z,102143.06
2022-10-11T22:09:05.870Z,102136.56
2022-10-11T22:11:32.619Z,102127.88
2022-10-11T22:14:00.900Z,102136.09
2022-10-11T22:16:27.975Z,102134.53
2022-10-11T22:18:54.685Z,102136.31
2022-10-11T22:21:23.343Z,102139.88
2022-10-11T22:23:51.861Z,102141.25
2022-10-11T22:26:27.615Z,102130.66
2022-10-11T22:28:54.644Z,102127.69
2022-10-11T22:31:22.261Z,102126.69
2022-10-11T22:34:00.206Z,102129.78
2022-10-11T22:36:28.041Z,102125.56
2022-10-11T22:38:54.913Z,102113.59
2022-10-11T22:41:21.991Z,102116.50
2022-10-11T22:43:51.310Z,102112.09
2022-10-11T22:46:18.987Z,102114.31
2022-10-11T22:48:45.767Z,102106.53
2022-10-11T22:51:12.503Z,102102.84
2022-10-11T22:53:39.213Z,102103.09
2022-10-11T22:56:06.090Z,102120.81
2022-10-11T22:58:32.944Z,102112.38
2022-10-11T23:01:09.696Z,102116.50
2022-10-11T23:03:36.905Z,102116.03
2022-10-11T23:06:04.718Z,102105.09
2022-10-11T23:08:31.630Z,102116.13
2022-10-11T23:11:06.234Z,102104.38
2022-10-11T23:13:33.721Z,102118.22
2022-10-11T23:18:32.468Z,102109.25
2022-10-11T23:21:02.690Z,102106.97
2022-10-11T23:23:29.481Z,102113.19
2022-10-11T23:26:03.823Z,102100.53
2022-10-11T23:28:30.978Z,102097.22
2022-10-11T23:30:57.749Z,102107.09
2022-10-11T23:33:24.881Z,102103.94
2022-10-11T23:35:51.580Z,102093.78
2022-10-11T23:38:18.414Z,102091.91
2022-10-11T23:40:45.112Z,102097.81
2022-10-11T23:43:11.739Z,102095.50
2022-10-11T23:45:38.900Z,102092.03
2022-10-11T23:48:05.718Z,102094.53
2022-10-11T23:50:32.358Z,102088.72
2022-10-11T23:52:59.047Z,102086.84
2022-10-11T23:55:25.879Z,102095.00
2022-10-11T23:57:52.608Z,102080.31
